Aviation Digital Data Service (ADDS)

Output produced by METARs form (0603 UTC 03 July 2022)
found at http://aviationweather.gov/metar/data/
 
METAR text: EGJB 030550Z 27007KT 9999 -SHRA FEW010 SCT023 BKN036 13/11 Q1021
Conditions at: EGJB (GUERNSEY AIRPORT, GG) observed 0550 UTC 03 July 2022
Temperature: 13.0°C (55°F)
Dewpoint: 11.0°C (52°F) [RH = 88%]
Pressure (altimeter): 30.15 inches Hg (1021.0 mb)
Winds: from the W (270 degrees) at 8 MPH (7 knots; 3.6 m/s)
Visibility: 6 or more miles (10+ km)
Ceiling: 3600 feet AGL
Clouds: few clouds at 1000 feet AGL
scattered clouds at 2300 feet AGL
broken clouds at 3600 feet AGL
Weather: -SHRA  (light rain showers)

METAR text: EGJB 030520Z 26009KT 9999 VCSH FEW009 SCT030 BKN048 14/12 Q1021
Conditions at: EGJB (GUERNSEY AIRPORT, GG) observed 0520 UTC 03 July 2022
Temperature: 14.0°C (57°F)
Dewpoint: 12.0°C (54°F) [RH = 88%]
Pressure (altimeter): 30.15 inches Hg (1021.0 mb)
Winds: from the W (260 degrees) at 10 MPH (9 knots; 4.6 m/s)
Visibility: 6 or more miles (10+ km)
Ceiling: 4800 feet AGL
Clouds: few clouds at 900 feet AGL
scattered clouds at 3000 feet AGL
broken clouds at 4800 feet AGL
Weather: VCSH  (showers in vicinity)

Forecast for: EGJB (GUERNSEY AIRPORT, GG)
Text: TAF EGJB 030457Z 0306/0315 27010KT 9999 FEW010 BKN046
Forecast period: 0600 to 1500 UTC 03 July 2022
Forecast type: FROM: standard forecast or significant change
Winds: from the W (270 degrees) at 12 MPH (10 knots; 5.1 m/s)
Visibility: 6 or more miles (10+ km)
Ceiling: 4600 feet AGL
Clouds: few clouds at 1000 feet AGL
broken clouds at 4600 feet AGL
Weather: no significant weather forecast for this period
Text: PROB40
Forecast period: 0600 to 0800 UTC 03 July 2022
Forecast type: TEMPORARY: The following changes expected for less than half the time period
Visibility: missing
Ceiling: 1000 feet AGL
Clouds: broken clouds at 1000 feet AGL
Weather: no significant weather forecast for this period